createdAt,value
2023-01-19T00:02:01.126Z,47.30
2023-01-19T00:04:33.497Z,47.20
2023-01-19T00:07:05.893Z,48.10
2023-01-19T00:09:38.586Z,49.20
2023-01-19T00:12:11.227Z,60.00
2023-01-19T00:14:43.704Z,48.90
2023-01-19T00:17:16.205Z,46.00
2023-01-19T00:19:48.550Z,50.50
2023-01-19T00:22:20.975Z,60.90
2023-01-19T00:24:53.451Z,62.20
2023-01-19T00:27:25.953Z,50.00
2023-01-19T00:29:58.255Z,47.20
2023-01-19T00:32:30.543Z,47.80
2023-01-19T00:35:02.772Z,45.60
2023-01-19T00:37:35.108Z,49.90
2023-01-19T00:40:10.014Z,52.00
2023-01-19T00:42:44.696Z,50.40
2023-01-19T00:45:19.500Z,47.20
2023-01-19T00:47:57.406Z,46.10
2023-01-19T00:50:31.831Z,46.20
2023-01-19T00:53:04.182Z,50.00
2023-01-19T00:55:36.592Z,45.00
2023-01-19T00:58:09.046Z,51.50
2023-01-19T01:00:41.584Z,58.10
2023-01-19T01:03:14.014Z,50.50
2023-01-19T01:05:46.471Z,56.20
2023-01-19T01:08:18.799Z,75.20
2023-01-19T01:10:51.444Z,58.10
2023-01-19T01:13:26.400Z,121.10
2023-01-19T01:16:00.163Z,55.90
2023-01-19T01:18:32.562Z,54.90
2023-01-19T01:21:06.607Z,49.60
2023-01-19T01:23:39.305Z,52.20
2023-01-19T01:26:11.805Z,50.90
2023-01-19T01:28:44.231Z,52.60
2023-01-19T01:31:16.668Z,53.00
2023-01-19T01:33:49.119Z,52.90
2023-01-19T01:36:22.067Z,48.10
2023-01-19T01:38:54.421Z,48.80
2023-01-19T01:41:27.487Z,48.50
2023-01-19T01:44:01.884Z,56.00
2023-01-19T01:46:35.065Z,52.40
2023-01-19T01:49:13.598Z,79.90
2023-01-19T01:51:49.822Z,147.60
2023-01-19T01:54:27.184Z,92.50
2023-01-19T01:57:04.042Z,66.80
2023-01-19T01:59:39.484Z,67.80
2023-01-19T02:02:34.236Z,56.40
2023-01-19T02:05:10.729Z,60.40
2023-01-19T02:08:06.907Z,80.70
2023-01-19T02:10:57.225Z,63.10
2023-01-19T02:13:31.318Z,60.90
2023-01-19T02:16:07.609Z,62.30
2023-01-19T02:18:40.936Z,61.00
2023-01-19T02:21:20.254Z,59.10
2023-01-19T02:23:54.862Z,62.60
2023-01-19T02:26:32.355Z,56.50
2023-01-19T02:29:07.286Z,54.00
2023-01-19T02:31:41.631Z,54.50
2023-01-19T02:34:16.849Z,53.80
2023-01-19T02:36:53.650Z,46.90
2023-01-19T02:39:32.348Z,48.90
2023-01-19T02:42:07.876Z,52.10
2023-01-19T02:44:42.850Z,47.00
2023-01-19T02:47:15.423Z,53.50
2023-01-19T02:49:55.097Z,50.40
2023-01-19T02:52:29.243Z,51.20
2023-01-19T02:55:19.535Z,52.80
2023-01-19T02:58:03.143Z,44.10
2023-01-19T03:00:45.890Z,49.10
2023-01-19T03:03:31.492Z,45.50
2023-01-19T03:06:11.238Z,46.40
2023-01-19T03:08:49.520Z,41.60
2023-01-19T03:11:21.974Z,41.50
2023-01-19T03:14:00.976Z,47.60
2023-01-19T03:16:42.120Z,42.10
2023-01-19T03:19:19.295Z,46.40
2023-01-19T03:21:55.788Z,46.00
2023-01-19T03:24:34.211Z,43.90
2023-01-19T03:27:11.622Z,45.00
2023-01-19T03:29:50.986Z,47.40
2023-01-19T03:32:30.369Z,89.80
2023-01-19T03:35:06.200Z,105.10
2023-01-19T03:37:42.360Z,71.30
2023-01-19T03:40:15.617Z,51.90
2023-01-19T03:42:50.277Z,46.50
2023-01-19T03:45:23.861Z,46.40
2023-01-19T03:47:57.713Z,45.00
2023-01-19T03:50:32.115Z,44.80
2023-01-19T03:53:08.891Z,45.20
2023-01-19T03:55:44.176Z,44.50
2023-01-19T04:00:47.991Z,44.70
2023-01-19T04:03:21.043Z,42.60
2023-01-19T04:05:53.550Z,46.00
2023-01-19T04:08:25.890Z,41.40
2023-01-19T04:11:00.362Z,43.40
2023-01-19T04:13:32.889Z,48.00
2023-01-19T04:16:06.479Z,47.20
2023-01-19T04:18:39.122Z,45.30
2023-01-19T04:21:11.566Z,45.70
2023-01-19T04:23:44.513Z,46.70
2023-01-19T04:26:16.978Z,45.30
2023-01-19T04:28:49.684Z,44.40
2023-01-19T04:31:23.385Z,46.70
2023-01-19T04:33:56.786Z,47.70
2023-01-19T04:36:29.440Z,47.90
2023-01-19T04:39:01.942Z,49.40
2023-01-19T04:41:34.320Z,46.20
2023-01-19T04:44:08.810Z,45.10
2023-01-19T04:46:41.471Z,46.90
2023-01-19T04:49:14.059Z,46.70
2023-01-19T04:51:46.570Z,49.00
2023-01-19T04:54:19.024Z,46.90
2023-01-19T04:56:51.577Z,47.70
2023-01-19T04:59:24.077Z,55.20
2023-01-19T05:01:57.347Z,66.40
2023-01-19T05:04:30.254Z,59.90
2023-01-19T05:07:02.627Z,59.20
2023-01-19T05:09:35.547Z,51.80
2023-01-19T05:12:08.570Z,51.60
2023-01-19T05:14:40.949Z,46.40
2023-01-19T05:17:13.424Z,41.50
2023-01-19T05:19:45.796Z,82.30
2023-01-19T05:22:18.511Z,77.40
2023-01-19T05:24:50.927Z,68.10
2023-01-19T05:27:23.359Z,68.60
2023-01-19T05:29:55.904Z,44.70
2023-01-19T05:32:28.282Z,47.60
2023-01-19T05:35:00.666Z,52.20
2023-01-19T05:37:33.023Z,66.20
2023-01-19T05:40:06.193Z,71.70
2023-01-19T05:42:38.972Z,103.60
2023-01-19T05:45:13.674Z,84.70
2023-01-19T05:47:45.996Z,154.30
2023-01-19T05:50:18.727Z,46.30
2023-01-19T05:52:53.367Z,70.50
2023-01-19T05:55:25.727Z,50.00
2023-01-19T05:57:58.156Z,46.70
2023-01-19T06:00:30.556Z,43.50
2023-01-19T06:03:03.386Z,48.30
2023-01-19T06:05:39.282Z,47.60
2023-01-19T06:08:11.845Z,40.70
2023-01-19T06:10:44.169Z,45.40
2023-01-19T06:13:16.460Z,45.50
2023-01-19T06:15:49.152Z,37.10
2023-01-19T06:18:21.591Z,45.20
2023-01-19T06:20:58.730Z,49.60
2023-01-19T06:23:33.920Z,41.60
2023-01-19T06:28:37.288Z,64.10
2023-01-19T06:31:09.898Z,63.50
2023-01-19T06:33:42.389Z,51.00
2023-01-19T06:36:14.782Z,58.50
2023-01-19T06:38:47.565Z,93.70
2023-01-19T06:41:19.960Z,114.20
2023-01-19T06:43:52.308Z,90.40
2023-01-19T06:46:24.691Z,88.70
2023-01-19T06:48:57.272Z,68.40
2023-01-19T06:51:29.710Z,75.70
2023-01-19T06:54:02.645Z,87.00
2023-01-19T06:56:35.119Z,76.20
2023-01-19T06:59:08.546Z,85.30
2023-01-19T07:01:40.912Z,87.80
2023-01-19T07:04:15.278Z,81.30
2023-01-19T07:06:47.662Z,73.90
2023-01-19T07:09:20.562Z,62.40
2023-01-19T07:11:55.174Z,73.10
2023-01-19T07:14:33.642Z,68.90
2023-01-19T07:17:06.047Z,62.60
2023-01-19T07:19:38.590Z,87.80
2023-01-19T07:22:11.077Z,80.90
2023-01-19T07:24:43.360Z,127.60
2023-01-19T07:27:16.561Z,155.60
2023-01-19T07:29:48.823Z,100.90
2023-01-19T07:32:21.251Z,129.30
2023-01-19T07:34:53.622Z,78.10
2023-01-19T07:37:26.043Z,80.90
2023-01-19T07:39:58.443Z,71.50
2023-01-19T07:42:30.765Z,69.30
2023-01-19T07:45:03.139Z,86.00
2023-01-19T07:47:35.618Z,83.60
2023-01-19T07:50:09.804Z,72.10
2023-01-19T07:52:42.308Z,68.90
2023-01-19T07:55:14.658Z,72.80
2023-01-19T07:57:49.390Z,133.80
2023-01-19T08:00:25.336Z,116.20
2023-01-19T08:03:02.812Z,107.40
2023-01-19T08:05:36.033Z,119.70
2023-01-19T08:08:11.670Z,89.50
2023-01-19T08:10:44.055Z,96.20
2023-01-19T08:13:16.445Z,86.60
2023-01-19T08:15:52.568Z,98.40
2023-01-19T08:18:24.979Z,82.90
2023-01-19T08:20:59.351Z,69.50
2023-01-19T08:23:31.659Z,140.30
2023-01-19T08:26:18.336Z,71.40
2023-01-19T08:28:50.709Z,82.90
2023-01-19T08:31:24.894Z,114.20
2023-01-19T08:33:57.584Z,132.80
2023-01-19T08:36:30.508Z,111.50
2023-01-19T08:39:02.884Z,121.50
2023-01-19T08:41:35.435Z,101.50
2023-01-19T08:44:08.117Z,85.50
2023-01-19T08:46:40.562Z,81.80
2023-01-19T08:49:13.297Z,83.50
2023-01-19T08:51:47.566Z,90.30
2023-01-19T08:54:21.862Z,99.10
2023-01-19T08:56:54.284Z,98.20
2023-01-19T08:59:26.782Z,124.30
2023-01-19T09:01:59.264Z,120.20
2023-01-19T09:04:33.125Z,112.10
2023-01-19T09:09:43.499Z,91.20
2023-01-19T09:12:16.741Z,101.90
2023-01-19T09:14:49.089Z,106.00
2023-01-19T09:17:21.592Z,99.60
2023-01-19T09:19:54.228Z,116.60
2023-01-19T09:22:26.846Z,120.50
2023-01-19T09:24:59.228Z,108.30
2023-01-19T09:27:31.873Z,191.50
2023-01-19T09:30:04.552Z,184.90
2023-01-19T09:32:36.899Z,152.10
2023-01-19T09:35:11.482Z,150.90
2023-01-19T09:37:46.723Z,191.90
2023-01-19T09:42:57.094Z,112.30
2023-01-19T09:45:37.613Z,89.70
2023-01-19T09:48:37.696Z,92.10
2023-01-19T09:51:16.153Z,105.80
2023-01-19T09:53:58.919Z,110.70
2023-01-19T09:56:32.909Z,114.10
2023-01-19T09:59:16.432Z,126.40
2023-01-19T10:02:00.196Z,164.20
2023-01-19T10:04:36.178Z,106.60
2023-01-19T10:07:31.439Z,102.20
2023-01-19T10:10:17.769Z,115.00
2023-01-19T10:13:01.541Z,106.70
2023-01-19T10:15:46.725Z,109.00
2023-01-19T10:18:25.787Z,91.90
2023-01-19T10:21:05.711Z,101.10
2023-01-19T10:23:45.204Z,119.60
2023-01-19T10:26:23.179Z,137.30
2023-01-19T10:29:02.933Z,122.50
2023-01-19T10:31:39.105Z,125.20
2023-01-19T10:34:21.560Z,108.10
2023-01-19T10:37:03.873Z,84.90
2023-01-19T10:39:38.719Z,81.90
2023-01-19T10:42:17.743Z,87.20
2023-01-19T10:44:50.866Z,85.70
2023-01-19T10:47:31.212Z,78.60
2023-01-19T10:50:23.813Z,92.50
2023-01-19T10:52:58.474Z,87.90
2023-01-19T10:55:33.574Z,83.30
2023-01-19T10:58:07.462Z,87.60
2023-01-19T11:00:44.157Z,76.50
2023-01-19T11:03:26.240Z,88.00
2023-01-19T11:06:20.549Z,83.30
2023-01-19T11:08:54.377Z,83.40
2023-01-19T11:11:27.496Z,89.20
2023-01-19T11:14:10.967Z,77.90
2023-01-19T11:16:47.440Z,79.80
2023-01-19T11:19:28.421Z,92.40
2023-01-19T11:22:21.742Z,107.40
2023-01-19T11:24:54.233Z,106.60
2023-01-19T11:27:27.250Z,83.10
2023-01-19T11:30:09.893Z,83.30
2023-01-19T11:32:43.164Z,82.60
2023-01-19T11:35:34.950Z,88.90
2023-01-19T11:38:18.391Z,97.60
2023-01-19T11:40:55.499Z,87.90
2023-01-19T11:43:43.511Z,95.30
2023-01-19T11:46:21.749Z,79.20
2023-01-19T11:49:02.102Z,91.40
2023-01-19T11:51:41.388Z,103.20
2023-01-19T11:54:23.853Z,103.90
2023-01-19T11:56:59.355Z,104.90
2023-01-19T11:59:31.774Z,111.30
2023-01-19T12:02:12.684Z,105.50
2023-01-19T12:04:46.839Z,99.30
2023-01-19T12:07:26.200Z,97.40
2023-01-19T12:10:07.509Z,84.40
2023-01-19T12:12:41.724Z,86.70
2023-01-19T12:15:26.492Z,84.00
2023-01-19T12:18:02.210Z,68.40
2023-01-19T12:20:39.043Z,70.60
2023-01-19T12:23:31.304Z,77.30
2023-01-19T12:26:27.967Z,77.30
2023-01-19T12:29:06.929Z,71.80
2023-01-19T12:31:40.905Z,69.40
2023-01-19T12:34:40.964Z,65.70
2023-01-19T12:37:38.076Z,64.10
2023-01-19T12:40:31.683Z,68.80
2023-01-19T12:43:06.801Z,67.20
2023-01-19T12:48:28.676Z,66.80
2023-01-19T12:51:01.910Z,69.90
2023-01-19T12:53:35.076Z,68.00
2023-01-19T12:56:11.756Z,71.80
2023-01-19T12:58:52.010Z,58.80
2023-01-19T13:01:25.301Z,83.00
2023-01-19T13:04:28.995Z,93.20
2023-01-19T13:07:17.001Z,84.20
2023-01-19T13:09:49.761Z,74.20
2023-01-19T13:12:27.669Z,70.70
2023-01-19T13:15:35.529Z,64.70
2023-01-19T13:18:11.449Z,63.40
2023-01-19T13:20:54.237Z,65.70
2023-01-19T13:23:29.678Z,65.30
2023-01-19T13:26:15.500Z,66.10
2023-01-19T13:28:51.941Z,61.90
2023-01-19T13:31:25.533Z,74.10
2023-01-19T13:34:01.258Z,65.00
2023-01-19T13:36:44.896Z,66.40
2023-01-19T13:39:24.282Z,70.30
2023-01-19T13:42:00.380Z,73.10
2023-01-19T13:44:37.343Z,67.50
2023-01-19T13:47:14.027Z,61.80
2023-01-19T13:49:49.442Z,62.50
2023-01-19T13:52:25.338Z,66.30
2023-01-19T13:55:02.906Z,71.90
2023-01-19T13:57:41.432Z,70.60
2023-01-19T14:00:22.593Z,78.50
2023-01-19T14:02:59.024Z,68.60
2023-01-19T14:05:34.254Z,68.00
2023-01-19T14:08:14.069Z,67.80
2023-01-19T14:10:48.297Z,66.90
2023-01-19T14:13:23.117Z,68.30
2023-01-19T14:15:59.291Z,71.50
2023-01-19T14:18:33.286Z,72.70
2023-01-19T14:21:08.903Z,81.90
2023-01-19T14:23:48.340Z,92.20
2023-01-19T14:26:57.497Z,85.70
2023-01-19T14:29:33.103Z,82.10
2023-01-19T14:32:20.777Z,66.80
2023-01-19T14:35:13.666Z,67.30
2023-01-19T14:37:51.419Z,102.10
2023-01-19T14:40:25.576Z,161.00
2023-01-19T14:43:03.192Z,166.10
2023-01-19T14:45:38.649Z,90.50
2023-01-19T14:48:18.931Z,91.30
2023-01-19T14:51:02.891Z,98.20
2023-01-19T14:53:38.852Z,91.10
2023-01-19T14:56:11.510Z,85.10
2023-01-19T14:58:43.828Z,93.40
2023-01-19T15:01:16.468Z,90.80
2023-01-19T15:03:48.976Z,70.40
2023-01-19T15:06:23.261Z,61.70
2023-01-19T15:08:56.505Z,65.50
2023-01-19T15:11:32.428Z,61.90
2023-01-19T15:14:05.245Z,61.00
2023-01-19T15:16:37.737Z,67.00
2023-01-19T15:19:13.767Z,65.80
2023-01-19T15:21:47.061Z,64.70
2023-01-19T15:24:19.441Z,62.70
2023-01-19T15:26:52.050Z,65.20
2023-01-19T15:29:29.196Z,72.40
2023-01-19T15:32:02.421Z,70.20
2023-01-19T15:34:34.838Z,72.00
2023-01-19T15:37:07.174Z,83.00
2023-01-19T15:39:39.878Z,69.80
2023-01-19T15:42:15.733Z,77.90
2023-01-19T15:44:48.149Z,84.00
2023-01-19T15:47:20.790Z,94.50
2023-01-19T15:49:53.969Z,122.80
2023-01-19T15:52:26.402Z,118.70
2023-01-19T15:54:58.793Z,122.60
2023-01-19T15:57:31.166Z,112.50
2023-01-19T16:00:03.822Z,88.90
2023-01-19T16:02:42.349Z,79.30
2023-01-19T16:05:14.916Z,77.70
2023-01-19T16:07:47.265Z,75.30
2023-01-19T16:10:19.806Z,88.20
2023-01-19T16:12:52.188Z,70.30
2023-01-19T16:15:25.505Z,64.90
2023-01-19T16:17:58.448Z,63.80
2023-01-19T16:20:30.748Z,67.90
2023-01-19T16:23:14.879Z,77.60
2023-01-19T16:25:55.846Z,110.30
2023-01-19T16:28:28.803Z,107.90
2023-01-19T16:31:01.123Z,174.40
2023-01-19T16:33:33.510Z,164.90
2023-01-19T16:36:20.153Z,183.50
2023-01-19T16:38:53.017Z,111.20
2023-01-19T16:41:25.491Z,82.00
2023-01-19T16:43:59.176Z,79.40
2023-01-19T16:46:34.110Z,90.20
2023-01-19T16:49:10.770Z,91.00
2023-01-19T16:51:43.279Z,94.40
2023-01-19T16:54:18.360Z,87.80
2023-01-19T16:59:22.907Z,77.20
2023-01-19T17:01:56.097Z,77.60
2023-01-19T17:04:28.649Z,69.00
2023-01-19T17:07:01.127Z,66.90
2023-01-19T17:09:34.139Z,75.60
2023-01-19T17:12:09.287Z,89.80
2023-01-19T17:14:43.239Z,79.10
2023-01-19T17:17:15.864Z,86.30
2023-01-19T17:19:48.287Z,76.90
2023-01-19T17:22:20.594Z,73.70
2023-01-19T17:24:52.928Z,76.80
2023-01-19T17:27:25.282Z,66.00
2023-01-19T17:29:57.603Z,72.60
2023-01-19T17:32:30.614Z,78.20
2023-01-19T17:35:03.087Z,78.50
2023-01-19T17:37:35.719Z,82.60
2023-01-19T17:40:13.030Z,73.10
2023-01-19T17:42:45.636Z,61.80
2023-01-19T17:45:18.280Z,62.20
2023-01-19T17:47:52.069Z,59.00
2023-01-19T17:50:24.545Z,63.10
2023-01-19T17:52:57.225Z,67.70
2023-01-19T17:55:29.728Z,56.50
2023-01-19T17:58:02.539Z,63.30
2023-01-19T18:00:34.966Z,66.70
2023-01-19T18:03:07.531Z,81.80
2023-01-19T18:05:39.945Z,70.60
2023-01-19T18:08:12.349Z,71.70
2023-01-19T18:10:44.836Z,80.30
2023-01-19T18:13:17.265Z,75.40
2023-01-19T18:15:49.691Z,64.90
2023-01-19T18:18:22.136Z,67.10
2023-01-19T18:20:54.612Z,69.30
2023-01-19T18:23:27.169Z,70.00
2023-01-19T18:26:04.450Z,70.80
2023-01-19T18:28:37.463Z,69.40
2023-01-19T18:31:11.844Z,69.60
2023-01-19T18:33:45.357Z,66.80
2023-01-19T18:36:17.955Z,61.00
2023-01-19T18:38:50.746Z,57.00
2023-01-19T18:41:24.250Z,67.70
2023-01-19T18:44:00.061Z,147.10
2023-01-19T18:46:32.557Z,94.80
2023-01-19T18:49:05.459Z,62.90
2023-01-19T18:51:39.677Z,64.60
2023-01-19T18:54:12.645Z,59.80
2023-01-19T18:56:45.010Z,53.10
2023-01-19T18:59:17.496Z,53.20
2023-01-19T19:01:49.965Z,65.80
2023-01-19T19:04:22.439Z,54.30
2023-01-19T19:06:54.937Z,58.60
2023-01-19T19:09:27.798Z,53.40
2023-01-19T19:12:00.831Z,49.90
2023-01-19T19:14:34.257Z,51.80
2023-01-19T19:17:06.860Z,59.60
2023-01-19T19:19:39.418Z,55.10
2023-01-19T19:22:11.795Z,59.00
2023-01-19T19:24:44.368Z,54.40
2023-01-19T19:27:17.871Z,54.10
2023-01-19T19:29:50.263Z,49.30
2023-01-19T19:32:22.768Z,52.10
2023-01-19T19:34:56.779Z,66.10
2023-01-19T19:37:29.667Z,65.90
2023-01-19T19:40:02.033Z,75.60
2023-01-19T19:42:36.656Z,78.70
2023-01-19T19:45:10.971Z,79.20
2023-01-19T19:47:44.059Z,67.20
2023-01-19T19:50:16.768Z,57.00
2023-01-19T19:52:49.270Z,50.30
2023-01-19T19:55:21.678Z,54.20
2023-01-19T19:57:54.973Z,53.50
2023-01-19T20:00:27.861Z,48.00
2023-01-19T20:03:00.305Z,54.10
2023-01-19T20:05:32.676Z,54.50
2023-01-19T20:08:05.175Z,57.40
2023-01-19T20:10:37.676Z,54.90
2023-01-19T20:13:10.179Z,52.40
2023-01-19T20:15:42.581Z,45.60
2023-01-19T20:18:15.130Z,50.50
2023-01-19T20:20:47.682Z,50.10
2023-01-19T20:23:20.209Z,48.50
2023-01-19T20:25:52.807Z,47.50
2023-01-19T20:28:26.053Z,53.00
2023-01-19T20:31:08.670Z,46.20
2023-01-19T20:33:41.268Z,47.30
2023-01-19T20:36:13.927Z,40.80
2023-01-19T20:38:46.887Z,38.00
2023-01-19T20:41:20.028Z,42.00
2023-01-19T20:43:53.119Z,41.10
2023-01-19T20:46:25.622Z,40.90
2023-01-19T20:48:58.057Z,38.10
2023-01-19T20:51:30.613Z,36.30
2023-01-19T20:54:02.948Z,43.20
2023-01-19T20:56:35.315Z,45.50
2023-01-19T20:59:07.817Z,60.70
2023-01-19T21:01:41.737Z,58.50
2023-01-19T21:04:14.797Z,51.80
2023-01-19T21:06:47.239Z,46.10
2023-01-19T21:09:19.802Z,44.90
2023-01-19T21:11:52.266Z,30.90
2023-01-19T21:14:24.706Z,32.90
2023-01-19T21:16:58.622Z,36.10
2023-01-19T21:19:31.184Z,35.60
2023-01-19T21:22:03.527Z,41.30
2023-01-19T21:24:36.033Z,44.00
2023-01-19T21:27:08.527Z,49.00
2023-01-19T21:29:41.362Z,50.90
2023-01-19T21:32:13.760Z,55.20
2023-01-19T21:34:46.985Z,53.90
2023-01-19T21:37:19.324Z,50.50
2023-01-19T21:39:51.673Z,226.40
2023-01-19T21:42:24.351Z,501.70
2023-01-19T21:44:56.747Z,570.60
2023-01-19T21:47:29.227Z,1159.80
2023-01-19T21:50:02.284Z,646.10
2023-01-19T21:52:34.639Z,371.20
2023-01-19T21:55:09.803Z,334.40
2023-01-19T22:00:15.985Z,164.60
2023-01-19T22:03:02.477Z,121.90
2023-01-19T22:05:38.165Z,92.00
2023-01-19T22:08:10.816Z,73.30
2023-01-19T22:10:43.266Z,65.70
2023-01-19T22:13:15.746Z,63.90
2023-01-19T22:15:48.088Z,67.50
2023-01-19T22:18:21.000Z,68.40
2023-01-19T22:20:53.374Z,74.70
2023-01-19T22:23:25.721Z,69.30
2023-01-19T22:26:01.764Z,65.30
2023-01-19T22:28:34.643Z,61.40
2023-01-19T22:31:10.006Z,68.40
2023-01-19T22:33:43.393Z,71.30
2023-01-19T22:36:19.543Z,64.10
2023-01-19T22:38:56.889Z,61.40
2023-01-19T22:41:30.685Z,68.90
2023-01-19T22:44:04.602Z,68.80
2023-01-19T22:46:38.297Z,62.10
2023-01-19T22:49:11.930Z,65.80
2023-01-19T22:51:44.687Z,64.60
2023-01-19T22:54:17.186Z,67.90
2023-01-19T22:56:49.611Z,71.90
2023-01-19T22:59:22.013Z,79.40
2023-01-19T23:01:54.587Z,126.20
2023-01-19T23:04:27.125Z,85.30
2023-01-19T23:06:59.443Z,92.50
2023-01-19T23:09:31.909Z,88.40
2023-01-19T23:12:04.564Z,86.20
2023-01-19T23:14:37.143Z,177.20
2023-01-19T23:17:09.618Z,95.10
2023-01-19T23:19:42.143Z,109.60
2023-01-19T23:22:14.708Z,100.20
2023-01-19T23:24:47.095Z,90.30
2023-01-19T23:27:19.626Z,82.50
2023-01-19T23:29:51.896Z,89.90
2023-01-19T23:32:24.266Z,102.80
2023-01-19T23:34:56.765Z,118.10
2023-01-19T23:37:29.148Z,98.30
2023-01-19T23:40:01.463Z,103.20
2023-01-19T23:42:33.833Z,87.40
2023-01-19T23:45:07.332Z,97.70
2023-01-19T23:47:43.291Z,88.80
2023-01-19T23:50:15.870Z,108.80
2023-01-19T23:52:48.098Z,101.90
2023-01-19T23:55:20.484Z,121.50
2023-01-19T23:57:52.734Z,98.60
